Latest Weather Observations for Brisbane Airport

IDQ60801

Issued at 9:52 pm EST Wednesday 8 December 2021 (issued every 10 minutes, with the page automatically refreshed every 10 minutes)

About weather observations | Map of weather stations | Latest weather observations for QLD | Other Formats
Station Details ID: 040842 Name: BRISBANE AERO Lat: -27.39 Lon: 153.13 Height: 4.51 m
Data from the previous 72 hours. | See also: Recent months at Brisbane Airport
Date/Time
EST
Temp
°C
App
Temp
°C
Dew
Point
°C
Rel
Hum
%
Delta-T
°C
Wind Press
QNH
hPa
Press
MSL
hPa
Rain since
9am
mm
Dir  Spd
km/h
Gust
km/h
Spd
kts
Gust
kts
08/09:30pm 21.1 22.8 20.1 94 0.6 WNW 11 15 6 8 1011.7 1011.7 12.4
08/09:00pm 20.9 23.0 20.1 95 0.5 WNW 9 11 5 6 1011.5 1011.5 12.4
08/08:30pm 21.2 25.0 20.2 94 0.6 CALM 0 0 0 0 1011.3 1011.3 12.4
08/08:25pm 21.2 25.0 20.2 94 0.6 CALM 0 0 0 0 1011.4 1011.4 12.2
08/08:00pm 20.9 22.6 19.4 91 1.0 NNE 9 11 5 6 1011.6 1011.6 12.2
08/07:30pm 20.9 24.2 19.0 89 1.2 CALM 0 0 0 0 1011.8 1011.8 12.2
08/07:00pm 21.1 23.2 20.1 94 0.6 NE 9 15 5 8 1011.3 1011.3 12.2
08/06:30pm 20.7 22.7 19.9 95 0.5 NE 9 13 5 7 1011.5 1011.5 12.2
08/06:00pm 20.7 22.6 19.7 94 0.6 NW 9 11 5 6 1012.0 1012.0 12.2
08/05:30pm 20.6 23.7 19.4 93 0.8 N 2 9 1 5 1011.9 1011.9 11.6
08/05:23pm 20.4 23.8 19.4 94 0.6 CALM 0 0 0 0 1011.6 1011.6 11.6
08/05:17pm 20.3 23.7 19.3 94 0.6 CALM 0 0 0 0 1011.5 1011.5 11.4
08/05:00pm 20.3 21.8 19.0 92 0.8 N 9 15 5 8 1011.3 1011.3 11.4
08/04:38pm 20.1 20.8 18.9 93 0.8 ESE 13 19 7 10 1011.1 1011.1 11.2
08/04:30pm 20.0 20.6 18.5 91 0.9 E 13 20 7 11 1010.8 1010.8 11.2
08/04:19pm 20.1 20.2 19.1 94 0.6 ESE 17 30 9 16 1011.1 1011.1 10.6
08/04:00pm 20.3 20.3 19.0 92 0.8 SSE 17 26 9 14 1011.0 1011.0 5.2
08/03:45pm 20.8 20.3 19.1 90 1.1 S 20 32 11 17 1010.6 1010.6 1.0
08/03:39pm 21.5 20.3 18.3 82 2.0 S 22 37 12 20 1010.8 1010.8 0.4
08/03:30pm 22.5 20.7 17.8 75 2.9 S 24 41 13 22 1011.1 1011.1 0.0
08/03:27pm 22.7 21.5 17.6 73 3.2 S 20 41 11 22 1011.1 1011.1 0.0
08/03:00pm 25.9 27.7 21.1 75 3.2 E 13 19 7 10 1010.5 1010.5 0.0
08/02:54pm 25.9 27.4 21.3 76 3.0 E 15 20 8 11 1010.8 1010.8 0.0
08/02:37pm 26.4 27.5 21.2 73 3.4 ENE 17 26 9 14 1010.7 1010.7 0.0
08/02:30pm 26.8 27.2 20.6 69 4.1 ENE 19 28 10 15 1010.3 1010.3 0.0
08/02:00pm 27.2 26.3 16.8 53 6.5 ENE 17 22 9 12 1010.6 1010.6 0.0
08/01:30pm 28.2 28.5 21.5 67 4.5 NE 22 26 12 14 1010.6 1010.6 0.0
08/01:00pm 27.3 28.7 21.8 72 3.7 NE 17 22 9 12 1011.1 1011.1 0.0
08/12:30pm 27.8 29.1 21.6 69 4.1 NNE 17 22 9 12 1011.4 1011.4 0.0
08/12:00pm 27.6 28.8 21.4 69 4.1 NNE 17 20 9 11 1011.8 1011.8 0.0
08/11:30am 27.7 29.2 22.0 71 3.8 NNE 17 20 9 11 1012.1 1012.1 0.0
08/11:00am 26.7 28.7 21.5 73 3.5 NNE 13 19 7 10 1012.5 1012.5 0.0
08/10:30am 26.5 28.8 20.6 70 3.9 NNE 9 15 5 8 1012.6 1012.6 0.0
08/10:00am 26.4 28.8 21.6 75 3.2 N 11 15 6 8 1013.0 1013.0 0.0
08/09:30am 26.3 28.6 21.3 74 3.3 NNE 11 17 6 9 1013.2 1013.2 0.0
08/09:00am 25.9 28.3 20.9 74 3.3 N 9 11 5 6 1013.2 1013.2 1.6
08/08:30am 25.3 27.3 20.8 76 3.0 N 11 13 6 7 1013.2 1013.2 1.6
08/08:00am 25.2 27.7 21.1 78 2.7 N 9 13 5 7 1012.9 1012.9 1.6
08/07:30am 25.1 29.5 21.4 80 2.4 CALM 0 0 0 0 1012.5 1012.5 1.6
08/07:00am 24.2 27.0 20.9 82 2.2 SSW 7 9 4 5 1012.4 1012.4 1.6
08/06:30am 23.6 26.3 21.3 87 1.5 SW 9 11 5 6 1012.6 1012.6 1.6
08/06:00am 23.0 26.0 21.3 90 1.1 SW 7 9 4 5 1012.5 1012.5 1.6
08/05:30am 22.0 25.6 20.5 91 1.0 SW 2 7 1 4 1012.2 1012.2 1.6
08/05:00am 21.8 24.4 20.1 90 1.1 W 6 11 3 6 1011.9 1011.9 1.6
08/04:30am 21.8 24.8 20.1 90 1.1 WNW 4 7 2 4 1011.9 1011.9 1.6
08/04:00am 21.6 25.3 19.9 90 1.1 CALM 0 0 0 0 1011.6 1011.6 1.6
08/03:30am 22.1 25.9 20.2 89 1.2 CALM 0 0 0 0 1011.7 1011.7 1.6
08/03:00am 22.2 24.7 20.3 89 1.2 WNW 7 7 4 4 1011.9 1011.9 1.6
08/02:30am 22.5 24.7 20.4 88 1.4 WNW 9 11 5 6 1011.7 1011.7 1.6
08/02:00am 22.7 24.5 20.4 87 1.5 NW 11 11 6 6 1011.8 1011.8 1.6
08/01:30am 23.4 25.6 21.1 87 1.5 NNE 11 17 6 9 1011.9 1011.9 1.6
08/01:00am 22.4 24.0 19.9 86 1.6 NE 11 15 6 8 1012.1 1012.1 1.6
08/12:30am 22.6 24.8 20.3 87 1.5 NE 9 13 5 7 1012.4 1012.4 1.6
08/12:00am 22.5 24.1 20.0 86 1.6 NE 11 15 6 8 1012.7 1012.7 1.6
 
Date/Time
EST
Temp
°C
App
Temp
°C
Dew
Point
°C
Rel
Hum
%
Delta-T
°C
Wind Press
QNH
hPa
Press
MSL
hPa
Rain since
9am
mm
Dir  Spd
km/h
Gust
km/h
Spd
kts
Gust
kts
07/11:30pm 21.9 23.4 19.8 88 1.3 NE 11 13 6 7 1013.2 1013.2 1.6
07/11:00pm 22.2 23.8 19.9 87 1.5 NE 11 13 6 7 1013.3 1013.3 1.6
07/10:30pm 22.9 24.2 20.2 85 1.7 NNE 13 17 7 9 1013.6 1013.6 1.6
07/10:00pm 22.4 24.4 19.9 86 1.6 NE 9 11 5 6 1013.7 1013.7 1.6
07/09:30pm 22.5 24.1 20.0 86 1.6 NE 11 15 6 8 1013.3 1013.3 1.6
07/09:00pm 22.8 24.3 19.8 83 1.9 NE 11 15 6 8 1013.0 1013.0 1.6
07/08:30pm 22.8 24.0 19.8 83 1.9 NE 13 17 7 9 1013.0 1013.0 1.6
07/08:00pm 23.1 24.7 19.9 82 2.1 NE 11 15 6 8 1012.9 1012.9 1.6
07/07:30pm 24.0 25.8 20.3 80 2.4 NE 11 13 6 7 1012.5 1012.5 1.6
07/07:00pm 24.3 25.5 20.0 77 2.8 ENE 13 15 7 8 1012.1 1012.1 1.6
07/06:30pm 24.4 25.7 20.1 77 2.8 NE 13 17 7 9 1012.2 1012.2 1.6
07/06:00pm 25.0 26.2 19.8 73 3.4 NE 13 17 7 9 1011.7 1011.7 1.6
07/05:30pm 25.3 25.5 19.4 70 3.8 NE 17 22 9 12 1011.6 1011.6 1.6
07/05:00pm 25.4 25.8 19.1 68 4.0 NE 15 20 8 11 1011.2 1011.2 1.6
07/04:30pm 26.0 26.8 19.9 69 4.0 ENE 15 20 8 11 1011.0 1011.0 1.6
07/04:00pm 25.7 26.6 20.0 71 3.7 E 15 22 8 12 1011.0 1011.0 1.6
07/03:30pm 26.3 26.4 19.9 68 4.2 NE 19 24 10 13 1011.2 1011.2 1.6
07/03:00pm 27.0 27.2 20.6 68 4.2 ENE 20 26 11 14 1011.8 1011.8 1.6
07/02:30pm 26.1 27.1 20.2 70 3.8 NE 15 19 8 10 1012.2 1012.2 1.6
07/02:00pm 25.9 26.6 20.5 72 3.5 NE 17 24 9 13 1012.4 1012.4 1.6
07/01:30pm 27.0 27.9 20.8 69 4.1 NE 17 22 9 12 1012.6 1012.6 1.6
07/01:00pm 27.1 28.3 20.7 68 4.2 NE 15 20 8 11 1012.7 1012.7 1.6
07/12:30pm 27.1 29.0 22.1 74 3.4 NNE 15 20 8 11 1012.7 1012.7 1.6
07/12:00pm 26.6 27.7 20.4 68 4.1 NNE 15 20 8 11 1012.9 1012.9 1.6
07/11:30am 26.7 28.1 22.5 78 2.8 NE 19 26 10 14 1013.1 1013.1 1.4
07/11:00am 24.9 26.2 20.8 78 2.7 N 15 17 8 9 1013.9 1013.9 1.4
07/10:30am 24.9 26.3 21.0 79 2.6 NE 15 20 8 11 1013.6 1013.6 1.4
07/10:00am 23.2 26.0 20.9 87 1.5 W 7 13 4 7 1014.2 1014.2 0.8
07/09:30am 25.4 27.1 20.2 73 3.4 E 11 19 6 10 1014.3 1014.3 0.0
07/09:00am 25.6 27.8 21.1 76 3.0 SSE 11 15 6 8 1013.8 1013.8 0.0
07/08:30am 24.9 27.0 21.0 79 2.6 SE 11 20 6 11 1013.6 1013.6 0.0
07/08:00am 24.7 26.6 20.6 78 2.7 ESE 11 19 6 10 1013.3 1013.3 0.0
07/07:30am 24.2 26.4 20.5 80 2.4 ESE 9 17 5 9 1013.7 1013.7 0.0
07/07:00am 23.2 25.4 19.6 80 2.3 S 7 11 4 6 1014.0 1014.0 0.0
07/06:30am 22.3 24.3 19.1 82 2.0 SSW 7 11 4 6 1014.1 1014.1 0.0
07/06:00am 21.5 23.1 19.2 87 1.5 SSW 9 11 5 6 1014.3 1014.3 0.0
07/05:30am 19.7 21.0 18.4 92 0.8 SSW 9 13 5 7 1014.1 1014.1 0.0
07/05:00am 19.7 20.6 18.4 92 0.8 SSW 11 13 6 7 1013.9 1013.9 0.0
07/04:30am 19.5 20.3 18.2 92 0.8 SSW 11 15 6 8 1013.8 1013.8 0.0
07/04:00am 19.7 20.6 18.4 92 0.8 SSW 11 13 6 7 1013.6 1013.6 0.0
07/03:30am 19.9 20.9 18.6 92 0.8 SW 11 13 6 7 1013.6 1013.6 0.0
07/03:00am 19.9 21.1 18.2 90 1.1 SSW 9 9 5 5 1013.5 1013.5 0.0
07/02:30am 19.9 21.1 18.2 90 1.1 SSW 9 13 5 7 1013.5 1013.5 0.0
07/02:00am 20.7 22.6 18.6 88 1.3 S 6 9 3 5 1013.5 1013.5 0.0
07/01:30am 20.8 22.6 18.7 88 1.3 SSW 7 9 4 5 1013.7 1013.7 0.0
07/01:00am 21.0 22.8 18.8 87 1.4 SSW 7 11 4 6 1014.0 1014.0 0.0
07/12:30am 21.2 23.1 18.9 87 1.4 S 7 9 4 5 1014.3 1014.3 0.0
07/12:00am 20.7 22.0 18.5 87 1.4 SSW 9 11 5 6 1014.8 1014.8 0.0
 
Date/Time
EST
Temp
°C
App
Temp
°C
Dew
Point
°C
Rel
Hum
%
Delta-T
°C
Wind Press
QNH
hPa
Press
MSL
hPa
Rain since
9am
mm
Dir  Spd
km/h
Gust
km/h
Spd
kts
Gust
kts
06/11:30pm 21.4 23.1 18.4 83 1.9 SSW 7 9 4 5 1014.9 1014.9 0.0
06/11:00pm 22.0 23.3 18.4 80 2.3 S 9 13 5 7 1014.9 1014.9 0.0
06/10:30pm 22.4 24.1 18.4 78 2.5 SSW 7 9 4 5 1015.2 1015.2 0.0
06/10:00pm 22.4 24.0 18.2 77 2.6 SSW 7 9 4 5 1015.3 1015.3 0.0
06/09:30pm 22.9 24.4 18.0 74 3.1 SE 7 11 4 6 1015.2 1015.2 0.0
06/09:00pm 23.3 24.7 17.7 71 3.5 SE 7 13 4 7 1015.2 1015.2 0.0
06/08:30pm 23.4 24.0 17.6 70 3.6 ESE 11 17 6 9 1014.7 1014.7 0.0
06/08:00pm 23.4 24.3 18.3 73 3.2 ESE 11 17 6 9 1014.5 1014.5 0.0
06/07:30pm 23.5 24.0 18.4 73 3.2 ESE 13 17 7 9 1014.3 1014.3 0.0
06/07:00pm 23.5 24.2 18.8 75 3.0 ESE 13 19 7 10 1014.2 1014.2 0.0
06/06:30pm 24.0 24.7 18.9 73 3.2 ESE 13 22 7 12 1014.1 1014.1 0.0
06/06:00pm 24.2 24.8 18.6 71 3.5 ESE 13 24 7 13 1013.9 1013.9 0.0
06/05:30pm 24.6 25.1 18.3 68 4.0 SE 13 20 7 11 1013.5 1013.5 0.0
06/05:00pm 25.2 25.9 18.9 68 4.0 ESE 13 24 7 13 1013.4 1013.4 0.0
06/04:30pm 24.9 25.2 19.5 72 3.5 SE 17 24 9 13 1013.0 1013.0 0.0
06/04:00pm 25.3 25.3 18.0 64 4.6 E 15 22 8 12 1012.7 1012.7 0.0
06/03:30pm 26.0 25.5 18.7 64 4.7 E 19 30 10 16 1012.9 1012.9 0.0
06/03:00pm 26.3 26.6 19.7 67 4.3 ESE 17 28 9 15 1013.2 1013.2 0.0
06/02:30pm 26.6 27.3 20.4 68 4.1 ESE 17 28 9 15 1013.6 1013.6 0.0
06/02:00pm 26.3 27.0 20.4 70 3.9 ESE 17 26 9 14 1014.0 1014.0 0.0
06/01:30pm 26.4 27.0 20.3 69 4.0 SE 17 28 9 15 1014.2 1014.2 0.0
06/01:00pm 25.7 25.6 19.6 69 3.9 SE 19 32 10 17 1013.9 1013.9 0.0
06/12:30pm 26.0 25.9 19.9 69 4.0 SE 20 32 11 17 1014.1 1014.1 0.0
06/12:00pm 25.9 25.0 19.1 66 4.4 SE 22 33 12 18 1014.3 1014.3 0.0
06/11:30am 26.1 25.5 19.7 68 4.1 SE 22 35 12 19 1014.8 1014.8 0.0
06/11:00am 26.1 26.2 20.0 69 4.0 ESE 19 28 10 15 1015.2 1015.2 0.0
06/10:30am 26.0 26.3 19.6 68 4.1 ESE 17 30 9 16 1015.5 1015.5 0.0
06/10:00am 26.0 26.4 19.9 69 4.0 SE 17 26 9 14 1015.6 1015.6 0.0
06/09:30am 25.1 26.0 18.5 67 4.2 SSE 11 24 6 13 1015.9 1015.9 0.0
06/09:00am 25.2 25.9 19.6 71 3.6 SSW 15 24 8 13 1016.1 1016.1 0.0
06/08:30am 23.6 24.0 18.9 75 3.0 SSW 15 22 8 12 1016.0 1016.0 0.0
06/08:00am 22.9 22.9 18.0 74 3.1 S 15 24 8 13 1015.9 1015.9 0.0
06/07:30am 21.9 21.9 17.3 75 2.8 SSW 13 17 7 9 1015.8 1015.8 0.0
06/07:00am 20.9 20.7 16.7 77 2.5 SSW 13 17 7 9 1015.7 1015.7 0.0
06/06:30am 20.4 20.2 16.6 79 2.3 SW 13 20 7 11 1015.4 1015.4 0.0
06/06:00am 19.6 19.7 16.6 83 1.8 SW 11 15 6 8 1015.2 1015.2 0.0
06/05:30am 18.8 19.3 16.6 87 1.3 SW 9 13 5 7 1014.7 1014.7 0.0
06/05:00am 18.2 18.6 16.2 88 1.2 SSW 9 13 5 7 1014.4 1014.4 0.0
06/04:30am 18.6 18.9 16.0 85 1.5 SSW 9 15 5 8 1014.2 1014.2 0.0
06/04:00am 18.9 18.8 16.0 83 1.7 SSW 11 15 6 8 1014.2 1014.2 0.0
06/03:30am 19.0 18.5 16.0 83 1.8 SSW 13 17 7 9 1014.0 1014.0 0.0
06/03:00am 19.5 19.0 16.0 80 2.1 SSW 13 19 7 10 1014.2 1014.2 0.0
06/02:30am 19.5 19.1 16.3 82 1.9 SSW 13 15 7 8 1014.5 1014.5 0.0
06/02:00am 19.2 18.9 16.4 84 1.7 SSW 13 17 7 9 1014.6 1014.6 0.0
06/01:30am 19.5 19.1 16.3 82 1.9 SSW 13 17 7 9 1014.9 1014.9 0.0
06/01:00am 19.9 20.0 16.5 81 2.0 SSW 11 19 6 10 1015.1 1015.1 0.0
06/12:30am 19.4 19.2 16.8 85 1.6 SSW 13 15 7 8 1015.6 1015.6 0.0
06/12:00am 19.1 18.8 16.5 85 1.6 SW 13 15 7 8 1015.9 1015.9 0.0
 
Date/Time
EST
Temp
°C
App
Temp
°C
Dew
Point
°C
Rel
Hum
%
Delta-T
°C
Wind Press
QNH
hPa
Press
MSL
hPa
Rain since
9am
mm
Dir  Spd
km/h
Gust
km/h
Spd
kts
Gust
kts
05/11:30pm 20.2 20.3 16.6 80 2.2 SSW 11 17 6 9 1015.5 1015.5 0.0
05/11:00pm 20.6 20.8 16.8 79 2.3 SSW 11 15 6 8 1015.8 1015.8 0.0
05/10:30pm 20.8 20.7 17.0 79 2.3 S 13 17 7 9 1016.1 1016.1 0.0
05/10:00pm 20.8 21.6 17.4 81 2.1 SSW 9 13 5 7 1016.1 1016.1 0.0

Other formats

Comma delimited format used in spreadsheet applications
http://www.bom.gov.au/fwo/IDQ60801/IDQ60801.94578.axf

JavaScript Object Notation format (JSON) in row-major order
http://www.bom.gov.au/fwo/IDQ60801/IDQ60801.94578.json

Data quality

Most of these data are generated automatically and are frequently updated. Quality checks on data are not normally performed. It is possible for incorrect values to appear. Refer to information at About Latest Weather Observations and please check the disclaimer before using these data.